Time;durP1;ratioP1;P1;durP2;ratioP2;P2;SDS_P1;SDS_P2;PMS_P1;PMS_P2;Temp;Humidity;BMP_temperature;BMP_pressure;BME280_temperature;BME280_humidity;BME280_pressure;Samples;Min_cycle;Max_cycle;Signal;HPM_P1;HPM_P2
2023/03/03 00:01:20;;;;;;;91.10;31.50;;;;;;;;;;110331;1278;22169;-73
2023/03/03 00:03:47;;;;;;;94.70;33.30;;;;;;;;;;110220;1278;22108;-72
2023/03/03 00:06:14;;;;;;;94.10;34.40;;;;;;;;;;110384;1278;22245;-72
2023/03/03 00:08:41;;;;;;;94.00;34.70;;;;;;;;;;110522;1256;22196;-73
2023/03/03 00:11:11;;;;;;;93.90;34.40;;;;;;;;;;110220;1278;22279;-72
2023/03/03 00:25:30;;;;;;;76.30;27.40;;;;;;;;;;109565;1291;22246;-72
2023/03/03 00:35:30;;;;;;;82.80;29.80;;;;;;;;;;109407;1292;22142;-72
2023/03/03 00:37:58;;;;;;;93.60;31.90;;;;;;;;;;109338;1270;22444;-72
2023/03/03 00:40:58;;;;;;;91.60;33.10;;;;;;;;;;109135;1293;22889;-74
2023/03/03 00:43:24;;;;;;;69.60;25.20;;;;;;;;;;109142;1293;22079;-72
2023/03/03 00:45:52;;;;;;;84.50;31.50;;;;;;;;;;109123;1293;22432;-72
2023/03/03 00:48:38;;;;;;;84.30;31.90;;;;;;;;;;109287;1270;22878;-72
2023/03/03 00:51:17;;;;;;;83.20;31.80;;;;;;;;;;109410;1290;22647;-72
2023/03/03 00:53:45;;;;;;;89.20;30.50;;;;;;;;;;109598;1290;23005;-72
2023/03/03 00:56:12;;;;;;;85.60;31.80;;;;;;;;;;109687;1279;22907;-72
2023/03/03 00:58:40;;;;;;;91.40;32.60;;;;;;;;;;109961;1256;22104;-73
2023/03/03 01:01:08;;;;;;;90.00;33.30;;;;;;;;;;110126;1280;22386;-72
2023/03/03 01:03:41;;;;;;;80.40;28.70;;;;;;;;;;110202;1280;22297;-73
2023/03/03 01:06:12;;;;;;;79.80;29.60;;;;;;;;;;110203;1280;22855;-73
2023/03/03 01:08:41;;;;;;;86.10;32.70;;;;;;;;;;110107;1256;22125;-73
2023/03/03 01:11:15;;;;;;;68.10;24.10;;;;;;;;;;110206;1280;22744;-73
2023/03/03 01:13:43;;;;;;;81.70;31.40;;;;;;;;;;110199;1276;22143;-73
2023/03/03 01:16:20;;;;;;;88.60;30.90;;;;;;;;;;110210;1280;22486;-74
2023/03/03 01:18:51;;;;;;;86.30;31.10;;;;;;;;;;110184;1256;22128;-73
2023/03/03 01:21:18;;;;;;;70.70;24.80;;;;;;;;;;110144;1276;22788;-73
2023/03/03 01:28:23;;;;;;;80.40;31.00;;;;;;;;;;109969;1284;22189;-73
2023/03/03 01:30:52;;;;;;;65.20;24.00;;;;;;;;;;110081;1264;22911;-73
2023/03/03 01:33:30;;;;;;;;;;;;;;;;;;;;;
2023/03/03 01:40:43;;;;;;;60.50;21.80;;;;;;;;;;109767;1267;22150;-73
2023/03/03 01:43:46;;;;;;;;;;;;;;;;;;;;;
2023/03/03 01:50:38;;;;;;;77.00;28.80;;;;;;;;;;109921;1264;22185;-73
2023/03/03 01:53:11;;;;;;;79.60;29.50;;;;;;;;;;109957;1283;22072;-73
2023/03/03 01:55:41;;;;;;;75.90;28.50;;;;;;;;;;109843;1283;22068;-73
2023/03/03 01:58:15;;;;;;;65.70;26.60;;;;;;;;;;109975;1283;22112;-73
2023/03/03 02:00:46;;;;;;;70.40;30.90;;;;;;;;;;110020;1264;22863;-73
2023/03/03 02:03:15;;;;;;;75.20;28.00;;;;;;;;;;110022;1283;22100;-73
2023/03/03 02:05:44;;;;;;;71.90;27.30;;;;;;;;;;110056;1283;22075;-73
2023/03/03 02:12:08;;;;;;;69.50;26.50;;;;;;;;;;109835;1267;22175;-73
2023/03/03 02:14:59;;;;;;;64.00;27.20;;;;;;;;;;109628;1289;22208;-73
2023/03/03 02:17:27;;;;;;;58.30;23.90;;;;;;;;;;109659;1289;22148;-73
2023/03/03 02:20:04;;;;;;;65.50;27.00;;;;;;;;;;109578;1289;22218;-77
2023/03/03 02:22:51;;;;;;;;;;;;;;;;;;;;;
2023/03/03 02:25:43;;;;;;;56.00;25.10;;;;;;;;;;109652;1289;22915;-73
2023/03/03 02:28:13;;;;;;;63.70;25.70;;;;;;;;;;109177;1294;22136;-73
2023/03/03 02:30:42;;;;;;;73.10;27.80;;;;;;;;;;109210;1270;22086;-73
2023/03/03 02:33:11;;;;;;;60.40;22.70;;;;;;;;;;109204;1294;22810;-73
2023/03/03 02:35:40;;;;;;;59.40;24.60;;;;;;;;;;109194;1293;22911;-73
2023/03/03 02:45:35;;;;;;;61.80;24.40;;;;;;;;;;103785;1295;546346;-80
2023/03/03 02:48:05;;;;;;;52.60;20.50;;;;;;;;;;106770;1279;24207;-75
2023/03/03 02:50:58;;;;;;;59.10;25.70;;;;;;;;;;106723;1279;24259;-74
2023/03/03 02:54:03;;;;;;;52.20;21.80;;;;;;;;;;106747;1279;22520;-74
2023/03/03 02:56:30;;;;;;;57.50;24.10;;;;;;;;;;106710;1279;25286;-77
2023/03/03 02:59:00;;;;;;;69.30;26.50;;;;;;;;;;105035;1277;2503373;-77
2023/03/03 03:02:11;;;;;;;64.70;25.20;;;;;;;;;;106878;1277;22504;-76
2023/03/03 03:05:11;;;;;;;;;;;;;;;;;;;;;
2023/03/03 03:07:53;;;;;;;61.60;26.10;;;;;;;;;;106988;1277;24348;-76
2023/03/03 03:10:31;;;;;;;61.60;24.10;;;;;;;;;;106921;1272;25430;-75
2023/03/03 03:13:01;;;;;;;61.10;25.00;;;;;;;;;;106859;1277;22630;-80
2023/03/03 03:15:43;;;;;;;56.70;25.20;;;;;;;;;;106876;1277;25332;-75
2023/03/03 03:18:14;;;;;;;46.50;20.40;;;;;;;;;;106852;1277;22484;-76
2023/03/03 03:20:44;;;;;;;62.00;25.30;;;;;;;;;;106857;1277;23907;-76
2023/03/03 03:23:14;;;;;;;65.40;26.10;;;;;;;;;;106850;1277;22518;-74
2023/03/03 03:26:14;;;;;;;64.20;25.00;;;;;;;;;;106719;1259;23909;-75
2023/03/03 03:29:12;;;;;;;;;;;;;;;;;;;;;
2023/03/03 03:32:10;;;;;;;56.80;23.00;;;;;;;;;;106886;1272;22650;-82
2023/03/03 03:34:57;;;;;;;68.60;26.40;;;;;;;;;;106851;1277;23948;-79
2023/03/03 03:37:37;;;;;;;64.90;24.60;;;;;;;;;;107036;1267;22527;-75
2023/03/03 03:40:25;;;;;;;68.70;25.70;;;;;;;;;;106790;1278;22518;-79
2023/03/03 03:43:12;;;;;;;68.30;24.40;;;;;;;;;;106850;1278;24343;-79
2023/03/03 03:45:59;;;;;;;67.20;25.00;;;;;;;;;;106841;1260;25178;-78
2023/03/03 03:49:08;;;;;;;61.50;24.70;;;;;;;;;;106882;1275;22645;-77
2023/03/03 03:52:03;;;;;;;65.70;24.30;;;;;;;;;;106776;1280;22644;-76
2023/03/03 03:55:25;;;;;;;62.60;24.50;;;;;;;;;;106727;1280;22728;-76
2023/03/03 03:57:47;;;;;;;62.60;25.50;;;;;;;;;;110073;1262;23119;-75
2023/03/03 04:00:14;;;;;;;49.50;18.70;;;;;;;;;;110142;1280;22371;-74
2023/03/03 04:02:44;;;;;;;53.10;22.40;;;;;;;;;;110116;1280;22158;-73
2023/03/03 04:05:12;;;;;;;54.90;22.20;;;;;;;;;;110111;1280;22110;-73
2023/03/03 04:07:40;;;;;;;48.80;20.80;;;;;;;;;;110025;1265;22020;-74
2023/03/03 04:10:07;;;;;;;51.80;21.50;;;;;;;;;;110127;1280;22857;-75
2023/03/03 04:12:38;;;;;;;57.50;22.00;;;;;;;;;;110019;1280;22133;-73
2023/03/03 04:15:07;;;;;;;46.70;19.20;;;;;;;;;;110129;1281;22153;-73
2023/03/03 04:17:35;;;;;;;47.40;20.10;;;;;;;;;;110092;1262;22146;-74
2023/03/03 04:20:02;;;;;;;56.90;21.70;;;;;;;;;;110021;1280;22131;-73
2023/03/03 04:22:34;;;;;;;52.90;22.20;;;;;;;;;;110018;1276;22153;-74
2023/03/03 04:25:03;;;;;;;50.70;20.50;;;;;;;;;;110109;1280;22892;-74
2023/03/03 04:27:34;;;;;;;60.50;23.60;;;;;;;;;;110079;1264;22206;-73
2023/03/03 04:30:01;;;;;;;48.60;21.20;;;;;;;;;;110625;1275;21975;-74
2023/03/03 04:32:29;;;;;;;47.90;19.40;;;;;;;;;;110571;1275;22086;-73
2023/03/03 04:34:56;;;;;;;58.40;23.40;;;;;;;;;;110633;1275;22096;-74
2023/03/03 04:37:25;;;;;;;50.50;19.90;;;;;;;;;;110420;1267;22606;-73
2023/03/03 04:39:52;;;;;;;49.80;20.50;;;;;;;;;;110268;1276;22261;-73
2023/03/03 04:42:19;;;;;;;54.30;21.60;;;;;;;;;;110366;1276;22075;-74
2023/03/03 04:44:47;;;;;;;50.90;20.50;;;;;;;;;;110544;1275;22832;-73
2023/03/03 04:47:17;;;;;;;56.90;22.70;;;;;;;;;;110652;1256;22091;-73
2023/03/03 04:49:46;;;;;;;54.50;21.80;;;;;;;;;;110574;1276;22845;-76
2023/03/03 04:52:12;;;;;;;57.10;22.80;;;;;;;;;;110554;1276;22112;-73
2023/03/03 04:54:39;;;;;;;46.60;20.70;;;;;;;;;;110543;1276;22229;-73
2023/03/03 04:57:08;;;;;;;41.50;16.10;;;;;;;;;;110631;1254;22141;-73
2023/03/03 04:59:35;;;;;;;60.90;22.10;;;;;;;;;;110536;1276;22139;-73
2023/03/03 05:02:04;;;;;;;57.40;22.60;;;;;;;;;;110551;1276;22244;-73
2023/03/03 05:04:35;;;;;;;36.50;14.40;;;;;;;;;;110550;1276;22948;-76
2023/03/03 05:07:02;;;;;;;56.20;21.60;;;;;;;;;;110385;1253;22334;-73
2023/03/03 05:09:29;;;;;;;45.00;17.30;;;;;;;;;;110386;1276;22122;-73
2023/03/03 05:11:55;;;;;;;59.20;22.30;;;;;;;;;;110279;1276;22118;-73
2023/03/03 05:14:25;;;;;;;44.10;16.90;;;;;;;;;;110634;1276;22104;-73
2023/03/03 05:16:57;;;;;;;65.20;23.60;;;;;;;;;;110659;1276;22881;-74
2023/03/03 05:19:25;;;;;;;53.30;20.70;;;;;;;;;;110762;1258;22108;-73
2023/03/03 05:21:52;;;;;;;50.60;18.20;;;;;;;;;;110539;1276;22123;-73
2023/03/03 05:24:19;;;;;;;68.70;25.40;;;;;;;;;;110391;1276;22108;-74
2023/03/03 05:26:45;;;;;;;63.30;24.40;;;;;;;;;;110634;1276;22098;-73
2023/03/03 05:29:32;;;;;;;;;;;;;;;;;;;;;
2023/03/03 05:31:59;;;;;;;67.20;25.00;;;;;;;;;;110529;1276;22142;-73
2023/03/03 05:34:26;;;;;;;63.90;23.70;;;;;;;;;;110555;1276;22121;-73
2023/03/03 05:36:55;;;;;;;49.10;20.00;;;;;;;;;;110634;1276;22150;-73
2023/03/03 05:39:22;;;;;;;55.40;22.80;;;;;;;;;;110676;1259;22206;-73
2023/03/03 05:41:49;;;;;;;59.70;23.80;;;;;;;;;;110461;1276;22089;-75
2023/03/03 05:48:10;;;;;;;46.90;17.30;;;;;;;;;;110098;1260;22150;-74
2023/03/03 05:50:37;;;;;;;50.30;20.60;;;;;;;;;;110082;1281;22253;-74
2023/03/03 05:53:04;;;;;;;52.00;21.00;;;;;;;;;;110080;1281;22110;-73
2023/03/03 05:55:31;;;;;;;45.60;18.50;;;;;;;;;;110033;1281;22149;-74
2023/03/03 05:57:58;;;;;;;43.90;18.20;;;;;;;;;;109999;1281;23964;-74
2023/03/03 06:00:34;;;;;;;47.90;18.70;;;;;;;;;;110004;1270;22135;-74
2023/03/03 06:03:01;;;;;;;43.10;17.90;;;;;;;;;;110063;1279;22224;-74
2023/03/03 06:05:28;;;;;;;44.40;17.20;;;;;;;;;;110025;1281;22843;-76
2023/03/03 06:07:55;;;;;;;44.00;18.30;;;;;;;;;;109988;1281;22046;-73
2023/03/03 06:10:22;;;;;;;49.30;19.30;;;;;;;;;;110189;1266;22180;-74
2023/03/03 06:12:50;;;;;;;51.70;20.60;;;;;;;;;;109995;1281;22006;-76
2023/03/03 06:15:17;;;;;;;55.20;23.00;;;;;;;;;;110018;1281;22148;-73
2023/03/03 06:17:44;;;;;;;54.90;21.00;;;;;;;;;;110043;1281;21736;-75
2023/03/03 06:20:21;;;;;;;;;;;;;;;;;;;;;
2023/03/03 06:22:48;;;;;;;39.50;15.90;;;;;;;;;;110038;1282;22123;-73
2023/03/03 06:25:14;;;;;;;51.10;19.20;;;;;;;;;;110546;1276;22095;-73
2023/03/03 06:27:44;;;;;;;55.20;20.00;;;;;;;;;;110614;1276;22935;-73
2023/03/03 06:30:11;;;;;;;58.40;21.90;;;;;;;;;;110637;1258;22099;-73
2023/03/03 06:32:38;;;;;;;61.70;21.60;;;;;;;;;;110461;1276;22101;-73
2023/03/03 06:35:05;;;;;;;62.00;21.90;;;;;;;;;;110227;1276;22837;-73
2023/03/03 06:37:32;;;;;;;62.50;24.90;;;;;;;;;;110634;1276;22119;-73
2023/03/03 06:39:59;;;;;;;60.40;22.90;;;;;;;;;;110532;1254;23264;-73
2023/03/03 06:42:26;;;;;;;58.30;23.50;;;;;;;;;;110442;1276;22102;-74
2023/03/03 06:45:39;;;;;;;58.30;21.70;;;;;;;;;;110409;1276;22170;-73
2023/03/03 06:47:43;;;;;;;63.20;23.80;;;;;;;;;;110432;1276;22088;-73
2023/03/03 06:50:10;;;;;;;61.50;24.20;;;;;;;;;;110693;1257;22123;-73
2023/03/03 06:52:37;;;;;;;51.60;20.20;;;;;;;;;;110457;1276;22099;-75
2023/03/03 06:55:22;;;;;;;50.40;19.80;;;;;;;;;;110435;1276;22130;-73
2023/03/03 06:57:49;;;;;;;56.60;20.40;;;;;;;;;;110431;1276;22119;-74
2023/03/03 07:00:16;;;;;;;48.90;19.70;;;;;;;;;;110627;1267;22419;-73
2023/03/03 07:02:43;;;;;;;51.40;20.90;;;;;;;;;;110448;1254;22295;-73
2023/03/03 07:05:13;;;;;;;35.70;13.50;;;;;;;;;;110451;1276;22089;-74
2023/03/03 07:07:40;;;;;;;44.90;18.20;;;;;;;;;;110435;1276;22174;-73
2023/03/03 07:10:19;;;;;;;45.60;17.70;;;;;;;;;;110557;1260;22115;-73
2023/03/03 07:12:46;;;;;;;39.80;17.10;;;;;;;;;;110423;1276;22875;-73
2023/03/03 07:15:19;;;;;;;41.20;16.30;;;;;;;;;;110345;1276;22113;-73
2023/03/03 07:17:58;;;;;;;38.60;14.20;;;;;;;;;;110494;1276;22134;-73
2023/03/03 07:20:52;;;;;;;41.50;17.50;;;;;;;;;;110546;1261;22183;-74
2023/03/03 07:23:41;;;;;;;39.00;15.20;;;;;;;;;;110323;1276;22109;-73
2023/03/03 07:26:11;;;;;;;43.60;17.60;;;;;;;;;;110444;1276;22321;-74
2023/03/03 07:28:42;;;;;;;42.40;16.80;;;;;;;;;;110514;1276;22216;-73
2023/03/03 07:31:21;;;;;;;38.80;14.60;;;;;;;;;;110661;1260;23020;-73
2023/03/03 07:33:48;;;;;;;37.10;13.20;;;;;;;;;;110439;1262;23234;-73
2023/03/03 07:36:27;;;;;;;33.60;13.40;;;;;;;;;;110541;1276;22123;-74
2023/03/03 07:38:56;;;;;;;35.90;14.30;;;;;;;;;;110370;1277;22422;-74
2023/03/03 07:41:23;;;;;;;37.20;14.60;;;;;;;;;;110639;1259;22166;-73
2023/03/03 07:43:49;;;;;;;40.40;16.60;;;;;;;;;;110225;1272;22743;-73
2023/03/03 07:46:21;;;;;;;38.90;17.00;;;;;;;;;;110456;1277;22121;-73
2023/03/03 07:48:48;;;;;;;37.60;14.50;;;;;;;;;;110377;1277;22902;-73
2023/03/03 07:51:19;;;;;;;40.80;14.70;;;;;;;;;;110502;1264;22947;-73
2023/03/03 07:53:46;;;;;;;31.60;13.10;;;;;;;;;;110398;1277;22864;-73
2023/03/03 07:56:20;;;;;;;34.20;13.40;;;;;;;;;;110396;1277;22191;-73
2023/03/03 07:58:47;;;;;;;36.70;14.00;;;;;;;;;;110482;1277;22178;-74
2023/03/03 08:01:32;;;;;;;35.90;13.20;;;;;;;;;;110488;1269;22123;-74
2023/03/03 08:03:59;;;;;;;39.20;15.40;;;;;;;;;;110470;1277;22817;-74
2023/03/03 08:06:29;;;;;;;33.00;12.10;;;;;;;;;;110225;1277;22813;-74
2023/03/03 08:09:01;;;;;;;35.70;14.00;;;;;;;;;;110377;1277;22121;-74
2023/03/03 08:11:28;;;;;;;35.60;13.40;;;;;;;;;;110358;1256;22871;-73
2023/03/03 08:13:55;;;;;;;25.70;9.20;;;;;;;;;;110404;1277;22195;-74
2023/03/03 08:16:36;;;;;;;39.40;14.20;;;;;;;;;;110396;1278;22098;-74
2023/03/03 08:19:04;;;;;;;34.20;13.40;;;;;;;;;;110237;1265;21983;-74
2023/03/03 08:21:32;;;;;;;35.20;12.90;;;;;;;;;;110348;1256;22816;-74
2023/03/03 08:23:59;;;;;;;34.60;13.10;;;;;;;;;;110470;1277;22116;-74
2023/03/03 08:26:26;;;;;;;31.00;10.80;;;;;;;;;;110475;1277;22093;-74
2023/03/03 08:28:53;;;;;;;33.10;12.80;;;;;;;;;;110375;1277;22193;-74
2023/03/03 08:31:23;;;;;;;31.80;12.40;;;;;;;;;;110486;1253;22151;-74
2023/03/03 08:33:49;;;;;;;30.40;12.10;;;;;;;;;;110445;1277;22097;-74
2023/03/03 08:36:16;;;;;;;32.30;13.00;;;;;;;;;;110200;1277;22187;-73
2023/03/03 08:38:43;;;;;;;30.30;12.60;;;;;;;;;;110355;1278;22120;-74
2023/03/03 08:41:10;;;;;;;32.20;12.30;;;;;;;;;;110422;1278;22373;-74
2023/03/03 08:43:37;;;;;;;30.10;12.40;;;;;;;;;;110216;1257;22142;-73
2023/03/03 08:46:05;;;;;;;30.70;10.60;;;;;;;;;;110433;1278;21916;-74
2023/03/03 08:48:32;;;;;;;32.70;11.50;;;;;;;;;;110426;1278;23287;-73
2023/03/03 08:51:00;;;;;;;32.20;12.80;;;;;;;;;;110336;1278;22297;-73
2023/03/03 08:53:27;;;;;;;35.60;13.70;;;;;;;;;;110504;1256;22134;-73
2023/03/03 08:55:54;;;;;;;36.60;13.60;;;;;;;;;;110431;1278;22173;-73
2023/03/03 08:58:21;;;;;;;32.80;13.60;;;;;;;;;;110309;1278;22820;-74
2023/03/03 09:00:49;;;;;;;34.90;13.40;;;;;;;;;;110338;1278;22147;-73
2023/03/03 09:03:16;;;;;;;35.10;13.90;;;;;;;;;;110410;1254;22272;-73
2023/03/03 09:05:44;;;;;;;31.30;13.00;;;;;;;;;;110417;1278;22104;-73
2023/03/03 09:08:11;;;;;;;30.40;10.60;;;;;;;;;;110298;1278;22109;-73
2023/03/03 09:10:39;;;;;;;26.50;9.70;;;;;;;;;;110341;1278;22269;-73
2023/03/03 09:13:10;;;;;;;35.80;13.60;;;;;;;;;;110563;1254;22688;-74
2023/03/03 09:15:38;;;;;;;32.70;12.70;;;;;;;;;;110401;1278;22093;-73
2023/03/03 09:18:07;;;;;;;32.20;13.30;;;;;;;;;;110308;1278;22831;-74
2023/03/03 09:20:44;;;;;;;31.50;13.10;;;;;;;;;;110410;1278;22079;-73
2023/03/03 09:23:17;;;;;;;30.60;12.40;;;;;;;;;;110473;1256;22113;-73
2023/03/03 09:25:44;;;;;;;28.70;12.20;;;;;;;;;;110426;1278;22141;-73
2023/03/03 09:28:27;;;;;;;29.50;12.40;;;;;;;;;;110433;1278;22110;-72
2023/03/03 09:30:58;;;;;;;28.90;12.20;;;;;;;;;;110337;1278;22890;-73
2023/03/03 09:33:27;;;;;;;31.60;12.20;;;;;;;;;;110337;1258;22120;-74
2023/03/03 09:36:02;;;;;;;35.60;15.10;;;;;;;;;;110309;1278;23066;-73
2023/03/03 09:38:29;;;;;;;37.40;14.40;;;;;;;;;;110143;1279;22120;-73
2023/03/03 09:41:05;;;;;;;34.50;14.60;;;;;;;;;;110169;1279;22101;-73
2023/03/03 09:43:48;;;;;;;37.30;13.00;;;;;;;;;;110327;1256;22160;-74
2023/03/03 09:46:16;;;;;;;33.10;13.20;;;;;;;;;;110261;1279;22129;-73
2023/03/03 09:49:10;;;;;;;36.30;14.50;;;;;;;;;;110286;1279;23206;-73
2023/03/03 09:51:47;;;;;;;34.60;14.40;;;;;;;;;;110195;1278;22119;-73
2023/03/03 09:54:19;;;;;;;37.20;16.00;;;;;;;;;;110467;1256;22103;-73
2023/03/03 09:56:53;;;;;;;37.00;15.40;;;;;;;;;;110293;1279;22807;-73
2023/03/03 09:59:21;;;;;;;31.70;12.40;;;;;;;;;;110279;1279;22999;-74
2023/03/03 10:01:59;;;;;;;31.20;11.80;;;;;;;;;;110280;1279;22097;-73
2023/03/03 10:04:39;;;;;;;38.50;15.50;;;;;;;;;;110385;1256;21876;-74
2023/03/03 10:07:24;;;;;;;35.10;14.30;;;;;;;;;;110160;1279;22190;-73
2023/03/03 10:09:51;;;;;;;35.00;13.40;;;;;;;;;;110170;1279;22093;-73
2023/03/03 10:12:27;;;;;;;31.10;13.40;;;;;;;;;;110170;1279;22132;-81
2023/03/03 10:14:57;;;;;;;24.90;9.70;;;;;;;;;;110530;1256;22784;-74
2023/03/03 10:17:32;;;;;;;31.50;13.20;;;;;;;;;;110297;1279;22183;-73
2023/03/03 10:20:20;;;;;;;33.00;13.80;;;;;;;;;;110271;1279;22078;-73
2023/03/03 10:22:57;;;;;;;33.80;13.00;;;;;;;;;;110245;1279;22108;-73
2023/03/03 10:25:47;;;;;;;26.00;11.50;;;;;;;;;;110637;1256;22264;-73
2023/03/03 10:28:32;;;;;;;32.30;13.20;;;;;;;;;;110300;1279;22102;-73
2023/03/03 10:31:03;;;;;;;29.60;12.50;;;;;;;;;;110153;1278;21915;-74
2023/03/03 10:33:38;;;;;;;35.70;14.10;;;;;;;;;;110294;1256;22284;-73
2023/03/03 10:36:08;;;;;;;32.40;13.60;;;;;;;;;;110262;1279;22184;-73
2023/03/03 10:38:44;;;;;;;31.80;14.20;;;;;;;;;;110252;1279;22081;-73
2023/03/03 10:41:25;;;;;;;33.80;14.90;;;;;;;;;;110186;1280;22150;-73
2023/03/03 10:44:44;;;;;;;36.20;14.10;;;;;;;;;;110218;1256;22885;-74
2023/03/03 10:47:23;;;;;;;29.80;11.20;;;;;;;;;;110035;1269;22922;-73
2023/03/03 10:50:10;;;;;;;34.70;14.60;;;;;;;;;;110031;1283;22291;-73
2023/03/03 10:52:42;;;;;;;43.90;15.70;;;;;;;;;;110019;1283;22138;-73
2023/03/03 10:55:29;;;;;;;32.10;12.50;;;;;;;;;;110138;1263;22858;-73
2023/03/03 10:58:23;;;;;;;32.90;14.30;;;;;;;;;;110032;1283;22850;-73
2023/03/03 11:00:57;;;;;;;33.30;13.30;;;;;;;;;;110024;1283;22201;-74
2023/03/03 11:03:43;;;;;;;37.70;14.10;;;;;;;;;;110040;1283;22158;-74
2023/03/03 11:06:19;;;;;;;34.10;14.80;;;;;;;;;;110024;1265;22159;-73
2023/03/03 11:09:08;;;;;;;33.70;14.40;;;;;;;;;;109984;1284;22191;-73
2023/03/03 11:11:43;;;;;;;34.00;13.90;;;;;;;;;;109960;1284;22890;-73
2023/03/03 11:14:21;;;;;;;31.40;13.40;;;;;;;;;;109972;1283;22345;-74
2023/03/03 11:16:57;;;;;;;32.50;13.40;;;;;;;;;;110043;1264;22147;-73
2023/03/03 11:19:44;;;;;;;36.50;13.80;;;;;;;;;;110011;1283;22872;-74
2023/03/03 11:22:35;;;;;;;32.10;13.10;;;;;;;;;;110034;1283;22922;-73
2023/03/03 11:25:36;;;;;;;28.80;12.60;;;;;;;;;;110156;1259;22856;-73
2023/03/03 11:28:21;;;;;;;33.20;12.30;;;;;;;;;;110190;1276;22087;-73
2023/03/03 11:31:06;;;;;;;29.30;13.00;;;;;;;;;;110155;1280;22507;-74
2023/03/03 11:33:53;;;;;;;27.80;12.50;;;;;;;;;;110114;1280;22322;-73
2023/03/03 11:36:36;;;;;;;30.90;13.50;;;;;;;;;;110244;1260;22061;-74
2023/03/03 11:46:14;;;;;;;32.60;13.70;;;;;;;;;;104147;1292;545258;-81
2023/03/03 11:48:53;;;;;;;28.70;11.70;;;;;;;;;;106300;1285;24374;-78
2023/03/03 11:51:42;;;;;;;34.80;14.30;;;;;;;;;;106380;1285;22731;-81
2023/03/03 11:54:17;;;;;;;31.80;13.70;;;;;;;;;;106397;1285;22542;-79
2023/03/03 11:56:45;;;;;;;29.90;13.30;;;;;;;;;;106395;1266;25314;-77
2023/03/03 11:59:32;;;;;;;29.50;13.20;;;;;;;;;;104479;1284;2556703;-81
2023/03/03 12:02:19;;;;;;;28.10;11.70;;;;;;;;;;106398;1284;22525;-77
2023/03/03 12:05:12;;;;;;;25.70;11.60;;;;;;;;;;106410;1284;25313;-77
2023/03/03 12:07:54;;;;;;;30.50;12.50;;;;;;;;;;107049;1257;22592;-75
2023/03/03 12:10:33;;;;;;;33.10;12.50;;;;;;;;;;106874;1275;24353;-75
2023/03/03 12:13:05;;;;;;;28.40;12.20;;;;;;;;;;107126;1275;24168;-77
2023/03/03 12:15:53;;;;;;;29.80;11.90;;;;;;;;;;107098;1275;24246;-75
2023/03/03 12:18:29;;;;;;;26.00;11.50;;;;;;;;;;106871;1257;23098;-75
2023/03/03 12:21:09;;;;;;;26.20;12.10;;;;;;;;;;106936;1276;22527;-80
2023/03/03 12:23:49;;;;;;;23.00;10.00;;;;;;;;;;107042;1276;25392;-79
2023/03/03 12:26:29;;;;;;;22.50;9.10;;;;;;;;;;106805;1254;25426;-73
2023/03/03 12:29:11;;;;;;;23.20;10.50;;;;;;;;;;106861;1275;25340;-75
2023/03/03 12:31:44;;;;;;;20.40;7.90;;;;;;;;;;107128;1274;25461;-74
2023/03/03 12:35:17;;;;;;;25.90;11.30;;;;;;;;;;107115;1274;22517;-77
2023/03/03 12:37:41;;;;;;;26.00;12.20;;;;;;;;;;106555;1262;24352;-79
2023/03/03 12:40:30;;;;;;;29.20;10.60;;;;;;;;;;106426;1282;22536;-80
2023/03/03 12:43:16;;;;;;;19.80;8.90;;;;;;;;;;106370;1282;22554;-76
2023/03/03 12:46:09;;;;;;;23.90;9.80;;;;;;;;;;106500;1275;24268;-78
2023/03/03 12:48:45;;;;;;;23.70;9.90;;;;;;;;;;106458;1279;22604;-75
2023/03/03 12:51:27;;;;;;;24.60;10.60;;;;;;;;;;106436;1278;24200;-74
2023/03/03 12:54:09;;;;;;;24.40;10.20;;;;;;;;;;106223;1283;24354;-75
2023/03/03 12:56:59;;;;;;;22.00;10.20;;;;;;;;;;106165;1260;22544;-76
2023/03/03 12:59:38;;;;;;;27.40;12.50;;;;;;;;;;106463;1279;25230;-75
2023/03/03 13:02:26;;;;;;;23.90;11.10;;;;;;;;;;106457;1276;22642;-76
2023/03/03 13:05:16;;;;;;;21.80;9.80;;;;;;;;;;106391;1283;22594;-81
2023/03/03 13:08:09;;;;;;;23.50;10.20;;;;;;;;;;106451;1283;22520;-74
2023/03/03 13:10:49;;;;;;;25.20;11.90;;;;;;;;;;105942;1290;22543;-79
2023/03/03 13:13:40;;;;;;;26.10;12.80;;;;;;;;;;105906;1287;22552;-76
2023/03/03 13:16:11;;;;;;;23.50;10.50;;;;;;;;;;106412;1278;25358;-75
2023/03/03 13:18:44;;;;;;;24.20;10.80;;;;;;;;;;106371;1265;25419;-75
2023/03/03 13:21:27;;;;;;;20.70;10.10;;;;;;;;;;106428;1277;25178;-74
2023/03/03 13:24:03;;;;;;;21.40;11.20;;;;;;;;;;106373;1276;25234;-77
2023/03/03 13:26:46;;;;;;;24.30;12.90;;;;;;;;;;106467;1277;25227;-80
2023/03/03 13:29:28;;;;;;;42.80;24.80;;;;;;;;;;106492;1265;24348;-75
2023/03/03 13:31:57;;;;;;;37.80;21.70;;;;;;;;;;106428;1280;22663;-75
2023/03/03 13:34:42;;;;;;;28.20;13.60;;;;;;;;;;106480;1276;24256;-77
2023/03/03 13:37:12;;;;;;;39.10;21.80;;;;;;;;;;106453;1277;22577;-77
2023/03/03 13:39:52;;;;;;;29.60;13.60;;;;;;;;;;106397;1276;22541;-78
2023/03/03 13:42:28;;;;;;;22.60;11.50;;;;;;;;;;106474;1283;22541;-76
2023/03/03 13:45:04;;;;;;;23.60;13.50;;;;;;;;;;106450;1276;24243;-75
2023/03/03 13:47:32;;;;;;;26.80;13.20;;;;;;;;;;106657;1272;22490;-74
2023/03/03 13:50:14;;;;;;;28.70;14.10;;;;;;;;;;107092;1256;25399;-76
2023/03/03 13:52:47;;;;;;;31.50;13.20;;;;;;;;;;107007;1270;25653;-74
2023/03/03 13:55:50;;;;;;;22.90;11.50;;;;;;;;;;106912;1270;22572;-75
2023/03/03 13:58:55;;;;;;;26.70;13.00;;;;;;;;;;106401;1279;22661;-75
2023/03/03 14:01:34;;;;;;;32.60;15.90;;;;;;;;;;106333;1284;24409;-77
2023/03/03 14:04:33;;;;;;;28.50;13.70;;;;;;;;;;106353;1283;22973;-76
2023/03/03 14:07:16;;;;;;;28.10;13.30;;;;;;;;;;106338;1278;26203;-76
2023/03/03 14:10:17;;;;;;;;;;;;;;;;;;;;;
2023/03/03 14:12:53;;;;;;;28.40;12.50;;;;;;;;;;106571;1276;22536;-76
2023/03/03 14:15:43;;;;;;;27.60;13.70;;;;;;;;;;106448;1276;24177;-75
2023/03/03 14:18:19;;;;;;;27.80;13.50;;;;;;;;;;106373;1278;22524;-75
2023/03/03 14:21:10;;;;;;;27.30;13.60;;;;;;;;;;106369;1267;22526;-73
2023/03/03 14:24:11;;;;;;;30.20;14.50;;;;;;;;;;106437;1281;24213;-74
2023/03/03 14:27:14;;;;;;;37.10;19.00;;;;;;;;;;106154;1279;22585;-74
2023/03/03 14:29:41;;;;;;;32.00;15.60;;;;;;;;;;106422;1264;25595;-76
2023/03/03 14:32:34;;;;;;;26.80;11.10;;;;;;;;;;106568;1269;22566;-74
2023/03/03 14:35:21;;;;;;;29.70;14.10;;;;;;;;;;107524;1269;24162;-75
2023/03/03 14:37:49;;;;;;;32.40;14.80;;;;;;;;;;106809;1276;25535;-74
2023/03/03 14:40:29;;;;;;;33.20;16.40;;;;;;;;;;106872;1259;22534;-78
2023/03/03 14:43:44;;;;;;;29.20;13.90;;;;;;;;;;107001;1276;23226;-78
2023/03/03 14:46:17;;;;;;;28.70;11.10;;;;;;;;;;107006;1269;24202;-76
2023/03/03 14:49:11;;;;;;;34.00;17.20;;;;;;;;;;106831;1277;23382;-75
2023/03/03 14:51:40;;;;;;;34.20;17.20;;;;;;;;;;107018;1259;22528;-75
2023/03/03 14:55:04;;;;;;;;;;;;;;;;;;;;;
2023/03/03 14:57:59;;;;;;;38.70;16.50;;;;;;;;;;107507;1266;25326;-75
2023/03/03 15:00:38;;;;;;;39.40;20.70;;;;;;;;;;107102;1259;22604;-77
2023/03/03 15:03:37;;;;;;;41.10;20.00;;;;;;;;;;106878;1272;22521;-76
2023/03/03 15:06:55;;;;;;;42.20;21.20;;;;;;;;;;107134;1267;22529;-78
2023/03/03 15:09:23;;;;;;;35.10;15.20;;;;;;;;;;107056;1267;22503;-75
2023/03/03 15:12:32;;;;;;;32.60;15.50;;;;;;;;;;107101;1257;25349;-76
2023/03/03 15:15:24;;;;;;;36.50;16.60;;;;;;;;;;107111;1265;22520;-76
2023/03/03 15:18:19;;;;;;;;;;;;;;;;;;;;;
2023/03/03 15:20:57;;;;;;;32.70;15.10;;;;;;;;;;107261;1254;25446;-79
2023/03/03 15:23:47;;;;;;;27.60;13.40;;;;;;;;;;107024;1267;25416;-78
2023/03/03 15:26:57;;;;;;;33.60;15.60;;;;;;;;;;106990;1270;22517;-79
2023/03/03 15:29:46;;;;;;;;;;;;;;;;;;;;;
2023/03/03 15:32:36;;;;;;;26.90;14.30;;;;;;;;;;106380;1267;22523;-78
2023/03/03 15:35:38;;;;;;;27.80;13.30;;;;;;;;;;106452;1275;24242;-77
2023/03/03 15:38:16;;;;;;;33.30;16.80;;;;;;;;;;106354;1275;22579;-73
2023/03/03 15:41:07;;;;;;;42.20;18.90;;;;;;;;;;106440;1257;22611;-79
2023/03/03 15:44:12;;;;;;;54.40;25.40;;;;;;;;;;106734;1272;25288;-78
2023/03/03 15:46:53;;;;;;;51.20;24.80;;;;;;;;;;106185;1281;22540;-74
2023/03/03 15:49:32;;;;;;;45.30;20.90;;;;;;;;;;106208;1284;22543;-76
2023/03/03 15:56:38;;;;;;;59.10;27.90;;;;;;;;;;106536;1277;25217;-77
2023/03/03 15:59:08;;;;;;;38.00;16.00;;;;;;;;;;109835;1278;22433;-72
2023/03/03 16:02:15;;;;;;;51.10;22.00;;;;;;;;;;109860;1268;22151;-73
2023/03/03 16:04:51;;;;;;;63.90;27.50;;;;;;;;;;109768;1286;22189;-73
2023/03/03 16:07:21;;;;;;;59.20;25.90;;;;;;;;;;110030;1281;22227;-73
2023/03/03 16:10:20;;;;;;;44.00;21.70;;;;;;;;;;110092;1272;22575;-73
2023/03/03 16:12:52;;;;;;;33.10;16.20;;;;;;;;;;110105;1262;22222;-72